Terminal Aerodrome Forecast
Issued by NWS

Home | Current Version | Previous Version | Text Only | Print | Product List | Glossary On
Versions: 1 2 3 4 5 6 7 8 9 10 11 12 13 14 15 16 17 18 19 20
000
FTUS43 KSGF 010500
TAFBBG
TAF
KBBG 010520Z 0106/0206 00000KT P6SM SCT100
     FM010700 00000KT 4SM BR SCT002
     FM010900 00000KT 1SM BR VV002
      TEMPO 0109/0113 1/4SM FG
     FM011300 VRB03KT 3SM BR SCT008
     FM011400 09005KT P6SM SCT030=

USA.gov is the U.S. government's official web portal to all federal, state and local government web resources and services.